createdAt,value
2024-02-29T00:00:26.061Z,6.07
2024-02-29T00:01:26.133Z,6.07
2024-02-29T00:02:26.080Z,6.11
2024-02-29T00:03:26.047Z,6.10
2024-02-29T00:04:26.039Z,6.09
2024-02-29T00:05:26.047Z,6.10
2024-02-29T00:06:26.000Z,6.09
2024-02-29T00:07:25.988Z,6.11
2024-02-29T00:08:26.018Z,6.16
2024-02-29T00:09:25.960Z,6.16
2024-02-29T00:10:25.956Z,6.21
2024-02-29T00:11:25.984Z,6.29
2024-02-29T00:12:25.935Z,6.30
2024-02-29T00:13:25.934Z,6.28
2024-02-29T00:14:25.948Z,6.32
2024-02-29T00:15:25.925Z,6.32
2024-02-29T00:16:25.904Z,6.33
2024-02-29T00:17:25.885Z,6.33
2024-02-29T00:18:25.883Z,6.30
2024-02-29T00:19:25.858Z,6.33
2024-02-29T00:20:25.896Z,6.32
2024-02-29T00:21:25.837Z,6.32
2024-02-29T00:22:25.831Z,6.30
2024-02-29T00:23:25.827Z,6.30
2024-02-29T00:24:25.813Z,6.30
2024-02-29T00:25:25.804Z,6.30
2024-02-29T00:26:25.830Z,6.29
2024-02-29T00:27:25.790Z,6.26
2024-02-29T00:28:25.771Z,6.21
2024-02-29T00:29:25.761Z,6.22
2024-02-29T00:30:25.742Z,6.26
2024-02-29T00:31:25.735Z,6.26
2024-02-29T00:32:25.770Z,6.25
2024-02-29T00:33:25.761Z,6.25
2024-02-29T00:34:25.730Z,6.22
2024-02-29T00:35:25.712Z,6.22
2024-02-29T00:36:25.681Z,6.21
2024-02-29T00:37:25.719Z,6.18
2024-02-29T00:38:25.683Z,6.10
2024-02-29T00:39:25.644Z,6.11
2024-02-29T00:40:25.637Z,6.10
2024-02-29T00:41:25.624Z,6.10
2024-02-29T00:42:25.608Z,6.06
2024-02-29T00:43:25.617Z,6.04
2024-02-29T00:44:25.665Z,6.03
2024-02-29T00:45:25.595Z,6.01
2024-02-29T00:46:25.575Z,6.00
2024-02-29T00:47:25.611Z,6.00
2024-02-29T00:48:25.557Z,6.03
2024-02-29T00:49:25.562Z,6.04
2024-02-29T00:50:25.578Z,6.07
2024-02-29T00:51:25.512Z,6.09
2024-02-29T00:52:25.510Z,6.07
2024-02-29T00:53:25.497Z,6.09
2024-02-29T00:54:25.481Z,6.06
2024-02-29T00:55:25.486Z,6.03
2024-02-29T00:56:25.506Z,6.04
2024-02-29T00:57:25.457Z,6.06
2024-02-29T00:58:25.442Z,6.07
2024-02-29T00:59:25.440Z,6.04
2024-02-29T01:00:25.427Z,6.06
2024-02-29T01:01:25.454Z,6.03
2024-02-29T01:02:25.453Z,6.03
2024-02-29T01:03:25.388Z,6.01
2024-02-29T01:04:25.415Z,6.00
2024-02-29T01:05:25.369Z,6.00
2024-02-29T01:06:25.364Z,5.98
2024-02-29T01:07:25.353Z,5.93
2024-02-29T01:08:25.382Z,5.91
2024-02-29T01:09:25.335Z,5.86
2024-02-29T01:10:25.308Z,5.82
2024-02-29T01:11:25.345Z,5.82
2024-02-29T01:12:25.293Z,5.83
2024-02-29T01:13:25.290Z,5.82
2024-02-29T01:14:25.306Z,5.81
2024-02-29T01:15:25.272Z,5.81
2024-02-29T01:16:25.254Z,5.81
2024-02-29T01:17:25.246Z,5.75
2024-02-29T01:18:25.234Z,5.75
2024-02-29T01:19:25.212Z,5.75
2024-02-29T01:20:25.234Z,5.75
2024-02-29T01:21:25.196Z,5.74
2024-02-29T01:22:25.230Z,5.67
2024-02-29T01:23:25.185Z,5.63
2024-02-29T01:24:25.162Z,5.59
2024-02-29T01:25:25.154Z,5.63
2024-02-29T01:26:25.181Z,5.63
2024-02-29T01:27:25.145Z,5.63
2024-02-29T01:28:25.118Z,5.57
2024-02-29T01:29:25.119Z,5.57
2024-02-29T01:30:25.102Z,5.52
2024-02-29T01:31:25.107Z,5.45
2024-02-29T01:32:27.965Z,5.38
2024-02-29T01:33:25.145Z,5.34
2024-02-29T01:34:25.102Z,5.31
2024-02-29T01:35:25.059Z,5.28
2024-02-29T01:36:25.036Z,5.32
2024-02-29T01:37:25.042Z,5.32
2024-02-29T01:38:25.065Z,5.35
2024-02-29T01:39:25.015Z,5.34
2024-02-29T01:40:24.993Z,5.45
2024-02-29T01:41:24.996Z,5.48
2024-02-29T01:42:24.988Z,5.50
2024-02-29T01:43:24.967Z,5.53
2024-02-29T01:44:24.990Z,5.53
2024-02-29T01:45:24.945Z,5.56
2024-02-29T01:46:24.939Z,5.57
2024-02-29T01:47:24.970Z,5.59
2024-02-29T01:48:24.904Z,5.56
2024-02-29T01:49:24.904Z,5.59
2024-02-29T01:50:24.914Z,5.68
2024-02-29T01:51:24.898Z,5.68
2024-02-29T01:52:24.869Z,5.70
2024-02-29T01:53:24.864Z,5.75
2024-02-29T01:54:24.839Z,5.83
2024-02-29T01:55:24.833Z,5.82
2024-02-29T01:56:24.877Z,5.89
2024-02-29T01:57:24.804Z,5.95
2024-02-29T01:58:24.845Z,5.95
2024-02-29T01:59:24.789Z,6.04
2024-02-29T02:00:24.780Z,6.03
2024-02-29T02:01:24.849Z,6.10
2024-02-29T02:02:24.787Z,6.09
2024-02-29T02:03:24.751Z,6.07
2024-02-29T02:04:24.734Z,6.09
2024-02-29T02:05:24.725Z,6.09
2024-02-29T02:06:24.720Z,6.07
2024-02-29T02:07:24.697Z,6.06
2024-02-29T02:08:24.737Z,6.06
2024-02-29T02:09:24.691Z,6.06
2024-02-29T02:10:24.768Z,6.01
2024-02-29T02:11:24.678Z,6.00
2024-02-29T02:12:24.648Z,5.92
2024-02-29T02:13:24.632Z,5.88
2024-02-29T02:14:24.671Z,5.86
2024-02-29T02:15:24.626Z,5.81
2024-02-29T02:16:24.604Z,5.77
2024-02-29T02:17:24.620Z,5.73
2024-02-29T02:18:24.584Z,5.73
2024-02-29T02:19:24.583Z,5.74
2024-02-29T02:20:24.583Z,5.77
2024-02-29T02:21:24.559Z,5.81
2024-02-29T02:22:24.535Z,5.85
2024-02-29T02:23:24.531Z,5.86
2024-02-29T02:24:24.529Z,5.81
2024-02-29T02:25:24.514Z,5.78
2024-02-29T02:26:24.532Z,5.77
2024-02-29T02:27:24.516Z,5.83
2024-02-29T02:28:24.469Z,5.91
2024-02-29T02:29:24.481Z,5.93
2024-02-29T02:30:24.476Z,6.00
2024-02-29T02:31:24.447Z,5.98
2024-02-29T02:32:24.475Z,5.96
2024-02-29T02:33:24.454Z,5.98
2024-02-29T02:34:24.419Z,6.06
2024-02-29T02:35:24.406Z,6.09
2024-02-29T02:36:24.397Z,6.09
2024-02-29T02:37:24.380Z,6.16
2024-02-29T02:38:24.410Z,6.19
2024-02-29T02:39:24.368Z,6.21
2024-02-29T02:40:24.353Z,6.25
2024-02-29T02:41:24.338Z,6.25
2024-02-29T02:42:24.338Z,6.28
2024-02-29T02:43:24.314Z,6.30
2024-02-29T02:44:24.351Z,6.30
2024-02-29T02:45:24.298Z,6.36
2024-02-29T02:46:24.289Z,6.40
2024-02-29T02:47:24.274Z,6.38
2024-02-29T02:48:24.260Z,6.38
2024-02-29T02:49:24.260Z,6.41
2024-02-29T02:50:24.310Z,6.41
2024-02-29T02:51:24.230Z,6.33
2024-02-29T02:52:24.231Z,6.33
2024-02-29T02:53:24.236Z,6.28
2024-02-29T02:54:24.210Z,6.29
2024-02-29T02:55:24.186Z,6.32
2024-02-29T02:56:24.218Z,6.30
2024-02-29T02:57:24.174Z,6.28
2024-02-29T02:58:24.169Z,6.22
2024-02-29T02:59:24.147Z,6.25
2024-02-29T03:00:24.154Z,6.26
2024-02-29T03:01:24.130Z,6.25
2024-02-29T03:02:24.179Z,6.21
2024-02-29T03:03:24.110Z,6.09
2024-02-29T03:04:24.118Z,6.06
2024-02-29T03:05:24.080Z,6.01
2024-02-29T03:06:24.076Z,5.98
2024-02-29T03:07:24.082Z,5.98
2024-02-29T03:08:24.098Z,5.95
2024-02-29T03:09:24.047Z,5.98
2024-02-29T03:10:24.025Z,5.96
2024-02-29T03:11:24.059Z,5.92
2024-02-29T03:12:24.001Z,5.95
2024-02-29T03:13:24.003Z,5.98
2024-02-29T03:14:24.025Z,5.96
2024-02-29T03:15:23.980Z,5.88
2024-02-29T03:16:23.969Z,5.81
2024-02-29T03:17:23.962Z,5.70
2024-02-29T03:18:23.949Z,5.64
2024-02-29T03:19:23.937Z,5.48
2024-02-29T03:20:23.961Z,5.66
2024-02-29T03:21:23.913Z,5.73
2024-02-29T03:22:23.902Z,5.75
2024-02-29T03:23:23.891Z,5.78
2024-02-29T03:24:23.883Z,5.83
2024-02-29T03:25:23.865Z,5.88
2024-02-29T03:26:23.908Z,5.92
2024-02-29T03:27:23.846Z,5.92
2024-02-29T03:28:23.835Z,5.95
2024-02-29T03:29:23.833Z,6.03
2024-02-29T03:30:23.818Z,6.09
2024-02-29T03:31:23.802Z,6.13
2024-02-29T03:32:23.839Z,6.13
2024-02-29T03:33:23.779Z,6.14
2024-02-29T03:34:23.820Z,6.09
2024-02-29T03:35:23.762Z,6.13
2024-02-29T03:36:23.752Z,6.13
2024-02-29T03:37:23.799Z,6.13
2024-02-29T03:38:23.773Z,6.13
2024-02-29T03:39:23.717Z,6.14
2024-02-29T03:40:23.753Z,6.10
2024-02-29T03:41:23.708Z,6.13
2024-02-29T03:42:23.687Z,6.11
2024-02-29T03:43:23.681Z,6.11
2024-02-29T03:44:23.696Z,6.13
2024-02-29T03:45:23.654Z,6.18
2024-02-29T03:46:23.654Z,6.14
2024-02-29T03:47:23.626Z,6.18
2024-02-29T03:48:23.624Z,6.19
2024-02-29T03:49:23.684Z,6.18
2024-02-29T03:50:23.641Z,6.14
2024-02-29T03:51:23.598Z,6.19
2024-02-29T03:52:23.574Z,6.22
2024-02-29T03:53:23.570Z,6.19
2024-02-29T03:54:23.559Z,6.21
2024-02-29T03:55:23.545Z,6.26
2024-02-29T03:56:23.575Z,6.28
2024-02-29T03:57:23.549Z,6.26
2024-02-29T03:58:23.614Z,6.21
2024-02-29T03:59:23.499Z,6.22
2024-02-29T04:00:23.495Z,6.22
2024-02-29T04:01:23.496Z,6.21
2024-02-29T04:02:23.541Z,6.22
2024-02-29T04:03:23.468Z,6.18
2024-02-29T04:04:23.451Z,6.22
2024-02-29T04:05:23.444Z,6.14
2024-02-29T04:06:23.421Z,6.18
2024-02-29T04:07:23.418Z,6.14
2024-02-29T04:08:23.450Z,6.22
2024-02-29T04:09:23.395Z,6.25
2024-02-29T04:10:23.450Z,6.26
2024-02-29T04:11:23.470Z,6.25
2024-02-29T04:12:23.362Z,6.21
2024-02-29T04:13:23.355Z,6.21
2024-02-29T04:14:23.383Z,6.22
2024-02-29T04:15:23.328Z,6.25
2024-02-29T04:16:23.398Z,-39.76
2024-02-29T04:17:23.304Z,5.95
2024-02-29T04:18:23.295Z,6.07
2024-02-29T04:19:23.287Z,6.11
2024-02-29T04:20:23.345Z,6.16
2024-02-29T04:21:23.260Z,6.19
2024-02-29T04:22:23.322Z,6.19
2024-02-29T04:23:23.258Z,6.18
2024-02-29T04:24:23.233Z,6.19
2024-02-29T04:25:23.259Z,6.25
2024-02-29T04:26:23.259Z,6.29
2024-02-29T04:27:23.218Z,6.29
2024-02-29T04:28:23.219Z,6.30
2024-02-29T04:29:23.199Z,6.26
2024-02-29T04:30:23.163Z,6.22
2024-02-29T04:31:23.169Z,6.22
2024-02-29T04:32:23.176Z,6.18
2024-02-29T04:33:23.210Z,6.16
2024-02-29T04:34:23.246Z,6.16
2024-02-29T04:35:23.117Z,6.14
2024-02-29T04:36:23.106Z,6.16
2024-02-29T04:37:23.102Z,6.13
2024-02-29T04:38:23.136Z,6.19
2024-02-29T04:39:23.070Z,6.14
2024-02-29T04:40:23.202Z,6.13
2024-02-29T04:41:23.059Z,6.10
2024-02-29T04:42:23.035Z,6.13
2024-02-29T04:43:23.051Z,6.13
2024-02-29T04:44:23.094Z,6.14
2024-02-29T04:45:23.010Z,6.13
2024-02-29T04:46:22.990Z,6.13
2024-02-29T04:47:22.985Z,6.09
2024-02-29T04:48:22.989Z,6.13
2024-02-29T04:49:22.991Z,6.18
2024-02-29T04:50:23.034Z,6.21
2024-02-29T04:51:22.944Z,6.18
2024-02-29T04:52:22.927Z,6.19
2024-02-29T04:53:22.926Z,6.18
2024-02-29T04:54:22.910Z,6.21
2024-02-29T04:55:22.975Z,6.19
2024-02-29T04:56:22.924Z,6.25
2024-02-29T04:57:22.902Z,6.28
2024-02-29T04:58:22.878Z,6.26
2024-02-29T04:59:22.857Z,6.14
2024-02-29T05:00:22.837Z,6.14
2024-02-29T05:01:22.908Z,6.19
2024-02-29T05:02:22.887Z,6.25
2024-02-29T05:03:22.814Z,6.32
2024-02-29T05:04:22.857Z,6.35
2024-02-29T05:05:22.795Z,6.38
2024-02-29T05:06:22.781Z,6.41
2024-02-29T05:07:22.856Z,6.47
2024-02-29T05:08:22.799Z,6.50
2024-02-29T05:09:22.749Z,6.59
2024-02-29T05:10:22.891Z,6.59
2024-02-29T05:11:22.804Z,6.63
2024-02-29T05:12:22.784Z,6.63
2024-02-29T05:13:22.724Z,6.54
2024-02-29T05:14:22.729Z,6.46
2024-02-29T05:15:22.821Z,6.43
2024-02-29T05:16:22.739Z,6.41
2024-02-29T05:17:22.670Z,6.35
2024-02-29T05:18:22.662Z,6.36
2024-02-29T05:19:22.679Z,6.30
2024-02-29T05:20:22.764Z,6.33
2024-02-29T05:21:22.638Z,6.35
2024-02-29T05:22:22.648Z,6.32
2024-02-29T05:23:22.610Z,6.30
2024-02-29T05:24:22.588Z,6.28
2024-02-29T05:25:22.698Z,6.28
2024-02-29T05:26:22.621Z,6.26
2024-02-29T05:27:22.553Z,6.25
2024-02-29T05:28:22.543Z,6.25
2024-02-29T05:29:22.767Z,6.21
2024-02-29T05:30:22.534Z,6.25
2024-02-29T05:31:22.538Z,6.21
2024-02-29T05:32:22.520Z,6.16
2024-02-29T05:33:22.571Z,6.16
2024-02-29T05:34:22.553Z,6.21
2024-02-29T05:35:22.477Z,6.19
2024-02-29T05:36:22.459Z,6.18
2024-02-29T05:37:22.478Z,6.16
2024-02-29T05:38:22.476Z,6.21
2024-02-29T05:39:22.450Z,6.16
2024-02-29T05:40:22.559Z,6.14
2024-02-29T05:41:22.406Z,6.21
2024-02-29T05:42:29.008Z,6.21
2024-02-29T05:43:22.430Z,6.28
2024-02-29T05:44:22.716Z,6.25
2024-02-29T05:45:22.386Z,6.29
2024-02-29T05:46:22.390Z,6.28
2024-02-29T05:47:22.395Z,6.28
2024-02-29T05:48:22.363Z,6.21
2024-02-29T05:49:22.426Z,6.21
2024-02-29T05:50:22.349Z,6.16
2024-02-29T05:51:22.319Z,6.16
2024-02-29T05:52:22.302Z,6.14
2024-02-29T05:53:22.272Z,6.13
2024-02-29T05:54:22.349Z,6.18
2024-02-29T05:55:22.278Z,6.18
2024-02-29T05:56:22.286Z,6.22
2024-02-29T05:57:22.239Z,6.25
2024-02-29T05:58:22.292Z,6.19
2024-02-29T05:59:22.257Z,6.18
2024-02-29T06:00:22.242Z,6.16
2024-02-29T06:01:22.274Z,6.18
2024-02-29T06:02:22.204Z,6.13
2024-02-29T06:03:22.173Z,6.11
2024-02-29T06:04:22.242Z,6.11
2024-02-29T06:05:22.165Z,6.14
2024-02-29T06:06:22.157Z,6.18
2024-02-29T06:07:22.234Z,6.22
2024-02-29T06:08:22.155Z,6.22
2024-02-29T06:09:22.122Z,6.22
2024-02-29T06:10:22.173Z,6.22
2024-02-29T06:11:22.142Z,6.11
2024-02-29T06:12:22.089Z,6.11
2024-02-29T06:13:22.111Z,6.06
2024-02-29T06:14:22.091Z,6.04
2024-02-29T06:15:22.039Z,6.01
2024-02-29T06:16:22.139Z,6.06
2024-02-29T06:17:22.037Z,6.03
2024-02-29T06:18:22.053Z,6.04
2024-02-29T06:19:22.038Z,5.98
2024-02-29T06:20:22.019Z,5.96
2024-02-29T06:21:21.976Z,5.96
2024-02-29T06:22:22.112Z,6.03
2024-02-29T06:23:21.956Z,6.07
2024-02-29T06:24:21.952Z,6.09
2024-02-29T06:25:22.054Z,6.10
2024-02-29T06:26:21.965Z,6.09
2024-02-29T06:27:21.921Z,6.13
2024-02-29T06:28:24.355Z,6.06
2024-02-29T06:29:21.890Z,6.03
2024-02-29T06:30:21.876Z,6.09
2024-02-29T06:31:21.897Z,6.13
2024-02-29T06:32:21.896Z,6.16
2024-02-29T06:33:21.843Z,6.19
2024-02-29T06:34:21.905Z,6.21
2024-02-29T06:35:21.823Z,6.19
2024-02-29T06:36:21.818Z,6.18
2024-02-29T06:37:21.833Z,6.16
2024-02-29T06:38:21.831Z,6.16
2024-02-29T06:39:21.778Z,6.19
2024-02-29T06:40:21.807Z,6.25
2024-02-29T06:41:21.779Z,6.30
2024-02-29T06:42:21.750Z,6.30
2024-02-29T06:43:21.813Z,6.33
2024-02-29T06:44:21.746Z,6.36
2024-02-29T06:45:21.719Z,6.33
2024-02-29T06:46:21.766Z,6.40
2024-02-29T06:47:21.702Z,6.33
2024-02-29T06:48:21.689Z,6.35
2024-02-29T06:49:21.750Z,6.41
2024-02-29T06:50:21.708Z,6.46
2024-02-29T06:51:21.660Z,6.46
2024-02-29T06:52:21.672Z,6.44
2024-02-29T06:53:21.643Z,6.48
2024-02-29T06:54:21.621Z,6.44
2024-02-29T06:55:21.809Z,6.51
2024-02-29T06:56:21.641Z,6.48
2024-02-29T06:57:21.597Z,6.53
2024-02-29T06:58:21.600Z,6.53
2024-02-29T06:59:21.563Z,6.59
2024-02-29T07:00:21.578Z,6.65
2024-02-29T07:01:21.708Z,6.69
2024-02-29T07:02:21.560Z,6.72
2024-02-29T07:03:21.511Z,6.72
2024-02-29T07:04:21.572Z,6.79
2024-02-29T07:05:21.505Z,6.83
2024-02-29T07:06:21.498Z,6.83
2024-02-29T07:07:21.556Z,6.86
2024-02-29T07:08:21.494Z,6.89
2024-02-29T07:09:21.457Z,6.87
2024-02-29T07:10:21.540Z,6.95
2024-02-29T07:11:21.453Z,7.02
2024-02-29T07:12:21.440Z,6.99
2024-02-29T07:13:21.571Z,7.05
2024-02-29T07:14:21.445Z,7.07
2024-02-29T07:15:21.391Z,7.15
2024-02-29T07:16:21.560Z,7.15
2024-02-29T07:17:21.372Z,7.17
2024-02-29T07:18:21.358Z,7.20
2024-02-29T07:19:21.388Z,7.26
2024-02-29T07:20:21.383Z,7.34
2024-02-29T07:21:21.321Z,7.37
2024-02-29T07:22:21.380Z,7.32
2024-02-29T07:23:21.301Z,7.35
2024-02-29T07:24:21.294Z,7.40
2024-02-29T07:25:21.306Z,7.45
2024-02-29T07:26:21.314Z,7.47
2024-02-29T07:27:21.260Z,7.50
2024-02-29T07:28:21.276Z,7.58
2024-02-29T07:29:21.288Z,7.58
2024-02-29T07:30:21.222Z,7.59
2024-02-29T07:31:21.535Z,7.63
2024-02-29T07:32:21.229Z,7.71
2024-02-29T07:33:21.196Z,7.66
2024-02-29T07:34:21.236Z,7.60
2024-02-29T07:35:21.181Z,7.62
2024-02-29T07:36:21.169Z,7.66
2024-02-29T07:37:21.254Z,7.63
2024-02-29T07:38:21.175Z,7.69
2024-02-29T07:39:21.129Z,7.67
2024-02-29T07:40:21.230Z,7.66
2024-02-29T07:41:21.102Z,7.69
2024-02-29T07:42:21.092Z,7.72
2024-02-29T07:43:21.188Z,7.74
2024-02-29T07:44:21.111Z,7.74
2024-02-29T07:45:21.518Z,7.79
2024-02-29T07:46:21.087Z,7.90
2024-02-29T07:47:21.042Z,7.92
2024-02-29T07:48:21.028Z,7.89
2024-02-29T07:49:21.076Z,7.92
2024-02-29T07:50:21.049Z,7.94
2024-02-29T07:51:20.994Z,7.97
2024-02-29T07:52:21.090Z,7.96
2024-02-29T07:53:20.977Z,7.96
2024-02-29T07:54:20.976Z,7.99
2024-02-29T07:55:21.016Z,7.99
2024-02-29T07:56:20.981Z,8.02
2024-02-29T07:57:20.943Z,8.11
2024-02-29T07:58:21.026Z,8.10
2024-02-29T07:59:20.910Z,8.20
2024-02-29T08:00:20.932Z,8.26
2024-02-29T08:01:21.135Z,8.35
2024-02-29T08:02:23.813Z,8.33
2024-02-29T08:03:20.867Z,8.32
2024-02-29T08:04:20.903Z,8.37
2024-02-29T08:05:20.849Z,8.45
2024-02-29T08:06:20.838Z,8.42
2024-02-29T08:07:20.905Z,8.47
2024-02-29T08:08:20.852Z,8.55
2024-02-29T08:09:20.800Z,8.60
2024-02-29T08:10:20.864Z,8.58
2024-02-29T08:11:20.796Z,8.57
2024-02-29T08:12:20.854Z,8.58
2024-02-29T08:13:20.892Z,8.60
2024-02-29T08:14:21.161Z,8.60
2024-02-29T08:15:20.769Z,8.66
2024-02-29T08:16:20.869Z,8.68
2024-02-29T08:17:20.719Z,8.69
2024-02-29T08:18:20.707Z,8.73
2024-02-29T08:19:20.773Z,8.79
2024-02-29T08:20:20.727Z,8.90
2024-02-29T08:21:20.691Z,8.99
2024-02-29T08:22:20.749Z,9.05
2024-02-29T08:23:20.643Z,9.06
2024-02-29T08:24:20.639Z,9.06
2024-02-29T08:25:20.709Z,9.10
2024-02-29T08:26:20.662Z,9.13
2024-02-29T08:27:20.605Z,9.20
2024-02-29T08:28:20.678Z,9.23
2024-02-29T08:29:20.586Z,9.27
2024-02-29T08:30:20.572Z,9.24
2024-02-29T08:31:20.681Z,9.30
2024-02-29T08:32:20.606Z,9.32
2024-02-29T08:33:20.614Z,9.31
2024-02-29T08:34:20.625Z,9.42
2024-02-29T08:35:20.524Z,9.52
2024-02-29T08:36:20.522Z,9.52
2024-02-29T08:37:20.589Z,9.50
2024-02-29T08:38:20.527Z,9.53
2024-02-29T08:39:20.469Z,9.57
2024-02-29T08:40:20.536Z,9.58
2024-02-29T08:41:20.461Z,9.66
2024-02-29T08:42:20.449Z,9.73
2024-02-29T08:43:20.505Z,9.83
2024-02-29T08:44:20.451Z,9.93
2024-02-29T08:45:21.956Z,9.94
2024-02-29T08:46:20.444Z,9.97
2024-02-29T08:47:20.388Z,9.94
2024-02-29T08:48:20.394Z,9.94
2024-02-29T08:49:20.384Z,10.03
2024-02-29T08:50:20.404Z,9.94
2024-02-29T08:51:20.349Z,9.99
2024-02-29T08:52:20.470Z,10.06
2024-02-29T08:53:20.321Z,10.09
2024-02-29T08:54:20.314Z,10.14
2024-02-29T08:55:20.449Z,10.04
2024-02-29T08:56:20.338Z,10.10
2024-02-29T08:57:20.301Z,10.19
2024-02-29T08:58:20.355Z,10.22
2024-02-29T08:59:20.258Z,10.19
2024-02-29T09:00:20.267Z,10.18
2024-02-29T09:01:20.272Z,10.15
2024-02-29T09:02:20.273Z,10.14
2024-02-29T09:03:20.227Z,10.12
2024-02-29T09:04:20.247Z,10.25
2024-02-29T09:05:20.193Z,10.32
2024-02-29T09:06:20.191Z,10.28
2024-02-29T09:07:20.204Z,10.30
2024-02-29T09:08:22.695Z,10.42
2024-02-29T09:09:20.159Z,10.59
2024-02-29T09:10:20.249Z,10.66
2024-02-29T09:11:20.200Z,10.62
2024-02-29T09:12:20.237Z,10.66
2024-02-29T09:13:30.101Z,10.70
2024-02-29T09:14:20.149Z,10.88
2024-02-29T09:15:20.113Z,10.95
2024-02-29T09:16:20.308Z,10.99
2024-02-29T09:17:20.098Z,11.02
2024-02-29T09:18:20.108Z,11.07
2024-02-29T09:19:20.151Z,11.02
2024-02-29T09:20:20.088Z,11.11
2024-02-29T09:21:20.030Z,11.02
2024-02-29T09:22:20.129Z,11.09
2024-02-29T09:23:20.003Z,11.19
2024-02-29T09:24:19.997Z,11.28
2024-02-29T09:25:20.162Z,11.28
2024-02-29T09:26:20.021Z,11.34
2024-02-29T09:27:19.967Z,11.41
2024-02-29T09:28:19.993Z,11.49
2024-02-29T09:29:20.511Z,11.59
2024-02-29T09:30:19.932Z,11.80
2024-02-29T09:31:20.007Z,11.85
2024-02-29T09:32:19.997Z,12.01
2024-02-29T09:33:19.927Z,12.01
2024-02-29T09:34:19.980Z,12.33
2024-02-29T09:35:19.878Z,12.60
2024-02-29T09:36:19.872Z,12.63
2024-02-29T09:37:19.910Z,12.87
2024-02-29T09:38:19.873Z,12.93
2024-02-29T09:39:19.825Z,13.04
2024-02-29T09:40:19.834Z,13.09
2024-02-29T09:42:19.876Z,12.96
2024-02-29T09:43:19.832Z,13.03
2024-02-29T09:44:19.848Z,13.21
2024-02-29T09:45:20.280Z,13.20
2024-02-29T09:46:19.773Z,13.30
2024-02-29T09:47:19.739Z,13.40
2024-02-29T09:48:19.728Z,13.40
2024-02-29T09:49:19.767Z,13.54
2024-02-29T09:50:19.737Z,13.76
2024-02-29T09:51:19.699Z,13.89
2024-02-29T09:52:19.835Z,14.01
2024-02-29T09:53:19.675Z,13.98
2024-02-29T09:54:19.670Z,14.01
2024-02-29T09:55:19.738Z,14.27
2024-02-29T09:56:19.683Z,14.42
2024-02-29T09:57:19.638Z,14.50
2024-02-29T09:58:19.629Z,14.65
2024-02-29T09:59:19.616Z,15.02
2024-02-29T10:00:19.612Z,15.24
2024-02-29T10:01:19.736Z,15.35
2024-02-29T10:02:19.619Z,15.42
2024-02-29T10:03:19.564Z,15.46
2024-02-29T10:04:19.604Z,15.52
2024-02-29T10:05:19.541Z,15.78
2024-02-29T10:06:19.551Z,16.00
2024-02-29T10:07:19.551Z,16.33
2024-02-29T10:08:19.529Z,16.44
2024-02-29T10:09:19.510Z,16.65
2024-02-29T10:10:19.572Z,16.81
2024-02-29T10:11:19.560Z,17.00
2024-02-29T10:12:19.652Z,16.77
2024-02-29T10:13:19.493Z,16.86
2024-02-29T10:14:19.486Z,16.90
2024-02-29T10:15:19.439Z,17.07
2024-02-29T10:16:19.500Z,17.17
2024-02-29T10:17:19.421Z,17.17
2024-02-29T10:18:19.449Z,17.22
2024-02-29T10:19:19.428Z,17.40
2024-02-29T10:20:19.425Z,17.48
2024-02-29T10:21:19.373Z,17.59
2024-02-29T10:22:19.399Z,17.94
2024-02-29T10:23:19.352Z,18.12
2024-02-29T10:24:19.340Z,17.91
2024-02-29T10:25:19.388Z,17.57
2024-02-29T10:26:19.344Z,17.14
2024-02-29T10:27:19.300Z,16.90
2024-02-29T10:28:19.335Z,16.59
2024-02-29T10:29:19.292Z,15.88
2024-02-29T10:30:19.278Z,15.64
2024-02-29T10:31:19.341Z,15.30
2024-02-29T10:32:19.296Z,15.36
2024-02-29T10:33:19.258Z,15.09
2024-02-29T10:34:19.276Z,15.09
2024-02-29T10:35:19.220Z,15.15
2024-02-29T10:36:19.206Z,15.11
2024-02-29T10:37:19.245Z,14.95
2024-02-29T10:38:19.211Z,14.90
2024-02-29T10:39:19.178Z,14.90
2024-02-29T10:40:19.212Z,14.87
2024-02-29T10:41:19.157Z,14.87
2024-02-29T10:42:19.172Z,14.91
2024-02-29T10:43:19.163Z,15.11
2024-02-29T10:44:19.155Z,15.12
2024-02-29T10:45:19.116Z,15.02
2024-02-29T10:46:19.130Z,15.01
2024-02-29T10:47:19.084Z,14.95
2024-02-29T10:48:19.076Z,14.87
2024-02-29T10:49:19.138Z,14.83
2024-02-29T10:50:19.070Z,14.99
2024-02-29T10:51:19.062Z,15.17
2024-02-29T10:52:19.073Z,15.08
2024-02-29T10:53:19.019Z,15.15
2024-02-29T10:54:19.025Z,15.09
2024-02-29T10:55:19.113Z,14.93
2024-02-29T10:56:19.022Z,14.93
2024-02-29T10:57:18.977Z,15.02
2024-02-29T10:58:19.110Z,14.95
2024-02-29T10:59:18.971Z,14.95
2024-02-29T11:00:18.939Z,15.01
2024-02-29T11:01:19.033Z,15.12
2024-02-29T11:02:18.956Z,15.36
2024-02-29T11:03:18.910Z,15.51
2024-02-29T11:04:19.029Z,15.45
2024-02-29T11:05:18.890Z,15.31
2024-02-29T11:06:18.883Z,15.23
2024-02-29T11:07:18.987Z,15.24
2024-02-29T11:08:18.886Z,15.21
2024-02-29T11:09:18.843Z,15.06
2024-02-29T11:10:18.941Z,15.02
2024-02-29T11:11:18.906Z,15.01
2024-02-29T11:12:18.837Z,15.05
2024-02-29T11:13:18.873Z,14.95
2024-02-29T11:14:19.019Z,15.08
2024-02-29T11:15:18.817Z,15.21
2024-02-29T11:16:18.845Z,15.28
2024-02-29T11:17:18.749Z,15.28
2024-02-29T11:18:18.742Z,15.41
2024-02-29T11:19:18.779Z,15.35
2024-02-29T11:20:18.760Z,15.36
2024-02-29T11:21:18.733Z,15.45
2024-02-29T11:22:18.782Z,15.51
2024-02-29T11:23:18.710Z,15.67
2024-02-29T11:24:18.675Z,15.86
2024-02-29T11:25:18.762Z,15.86
2024-02-29T11:26:18.687Z,15.94
2024-02-29T11:27:18.648Z,15.88
2024-02-29T11:28:18.808Z,15.99
2024-02-29T11:29:18.619Z,16.31
2024-02-29T11:30:18.608Z,16.55
2024-02-29T11:31:18.911Z,16.55
2024-02-29T11:32:18.617Z,16.49
2024-02-29T11:33:18.613Z,16.27
2024-02-29T11:34:18.670Z,16.09
2024-02-29T11:35:18.557Z,16.16
2024-02-29T11:36:18.542Z,16.12
2024-02-29T11:37:18.560Z,16.06
2024-02-29T11:38:25.328Z,16.30
2024-02-29T11:39:18.576Z,16.23
2024-02-29T11:40:18.607Z,15.88
2024-02-29T11:41:18.490Z,15.67
2024-02-29T11:42:18.474Z,15.66
2024-02-29T11:43:18.540Z,15.38
2024-02-29T11:44:18.492Z,15.42
2024-02-29T11:45:18.440Z,15.57
2024-02-29T11:46:18.493Z,15.56
2024-02-29T11:47:18.415Z,15.48
2024-02-29T11:48:18.465Z,15.41
2024-02-29T11:49:18.462Z,15.41
2024-02-29T11:50:18.595Z,15.56
2024-02-29T11:51:18.378Z,15.60
2024-02-29T11:52:18.433Z,15.57
2024-02-29T11:53:18.360Z,15.51
2024-02-29T11:54:18.342Z,15.36
2024-02-29T11:55:18.371Z,15.41
2024-02-29T11:56:18.426Z,15.51
2024-02-29T11:57:18.315Z,15.48
2024-02-29T11:58:18.421Z,15.35
2024-02-29T11:59:18.293Z,15.24
2024-02-29T12:00:18.276Z,15.31
2024-02-29T12:01:18.336Z,15.38
2024-02-29T12:02:18.288Z,15.38
2024-02-29T12:03:18.251Z,15.41
2024-02-29T12:04:18.308Z,15.45
2024-02-29T12:05:19.992Z,15.41
2024-02-29T12:06:18.252Z,15.48
2024-02-29T12:07:18.223Z,15.45
2024-02-29T12:08:18.224Z,15.36
2024-02-29T12:09:18.209Z,15.36
2024-02-29T12:10:18.226Z,15.23
2024-02-29T12:11:18.238Z,15.26
2024-02-29T12:12:18.158Z,15.42
2024-02-29T12:13:18.203Z,15.46
2024-02-29T12:14:18.151Z,15.46
2024-02-29T12:15:18.119Z,15.49
2024-02-29T12:16:18.134Z,15.52
2024-02-29T12:17:18.097Z,15.66
2024-02-29T12:18:18.132Z,15.67
2024-02-29T12:19:18.169Z,15.67
2024-02-29T12:20:18.317Z,15.75
2024-02-29T12:21:18.062Z,15.79
2024-02-29T12:22:18.140Z,15.85
2024-02-29T12:23:18.030Z,15.84
2024-02-29T12:24:18.016Z,15.81
2024-02-29T12:25:18.075Z,15.82
2024-02-29T12:26:18.043Z,15.85
2024-02-29T12:27:17.988Z,15.78
2024-02-29T12:28:18.009Z,15.78
2024-02-29T12:29:17.975Z,15.56
2024-02-29T12:30:17.956Z,15.49
2024-02-29T12:31:18.067Z,15.39
2024-02-29T12:32:17.961Z,15.39
2024-02-29T12:33:19.826Z,15.26
2024-02-29T12:34:17.941Z,15.35
2024-02-29T12:35:17.934Z,15.41
2024-02-29T12:36:17.972Z,15.35
2024-02-29T12:37:17.912Z,15.46
2024-02-29T12:38:17.906Z,15.57
2024-02-29T12:39:17.848Z,15.48
2024-02-29T12:40:18.031Z,15.59
2024-02-29T12:41:17.840Z,15.52
2024-02-29T12:42:17.823Z,15.57
2024-02-29T12:43:17.914Z,15.75
2024-02-29T12:44:17.838Z,15.84
2024-02-29T12:45:19.491Z,15.74
2024-02-29T12:46:17.854Z,15.66
2024-02-29T12:47:17.791Z,15.78
2024-02-29T12:48:17.756Z,15.72
2024-02-29T12:49:17.777Z,15.72
2024-02-29T12:50:17.772Z,15.66
2024-02-29T12:51:17.755Z,15.61
2024-02-29T12:52:17.751Z,15.64
2024-02-29T12:53:17.697Z,15.64
2024-02-29T12:54:17.725Z,15.78
2024-02-29T12:55:17.724Z,15.81
2024-02-29T12:56:17.794Z,15.92
2024-02-29T12:57:17.656Z,15.86
2024-02-29T12:58:17.687Z,15.79
2024-02-29T12:59:17.634Z,15.59
2024-02-29T13:00:17.616Z,15.54
2024-02-29T13:01:17.804Z,15.46
2024-02-29T13:02:17.652Z,15.41
2024-02-29T13:03:17.585Z,15.38
2024-02-29T13:04:17.604Z,15.36
2024-02-29T13:05:17.677Z,15.46
2024-02-29T13:06:17.551Z,15.54
2024-02-29T13:07:17.593Z,15.54
2024-02-29T13:08:17.561Z,15.66
2024-02-29T13:09:17.530Z,15.31
2024-02-29T13:10:17.544Z,15.46